Time;durP1;ratioP1;P1;durP2;ratioP2;P2;SDS_P1;SDS_P2;PMS_P1;PMS_P2;Temp;Humidity;BMP_temperature;BMP_pressure;BME280_temperature;BME280_humidity;BME280_pressure;Samples;Min_cycle;Max_cycle;Signal;HPM_P1;HPM_P2
2023/09/26 00:02:20;;;;;;;115.05;109.90;;;;;;;20.06;56.01;102079.84;4963960;28;20053;-68
2023/09/26 00:04:47;;;;;;;114.57;109.38;;;;;;;20.05;56.17;102075.44;4957805;28;20047;-68
2023/09/26 00:07:12;;;;;;;118.00;112.60;;;;;;;20.04;55.99;102067.50;4955078;28;20307;-68
2023/09/26 00:09:38;;;;;;;120.40;115.00;;;;;;;20.02;56.34;102073.25;4957932;28;20475;-67
2023/09/26 00:12:04;;;;;;;118.25;113.00;;;;;;;20.01;56.21;102073.53;4965637;28;20035;-68
2023/09/26 00:14:29;;;;;;;116.05;110.80;;;;;;;20.00;56.12;102072.69;4963367;28;20043;-68
2023/09/26 00:16:55;;;;;;;115.55;110.35;;;;;;;19.99;56.29;102073.00;4964917;28;20103;-70
2023/09/26 00:19:21;;;;;;;116.20;110.95;;;;;;;19.97;56.24;102081.47;4958776;28;20046;-67
2023/09/26 00:21:47;;;;;;;116.82;111.63;;;;;;;19.96;56.00;102079.00;4967656;28;20038;-68
2023/09/26 00:24:13;;;;;;;116.22;111.07;;;;;;;19.95;56.05;102088.34;4968532;28;20047;-68
2023/09/26 00:26:38;;;;;;;117.97;112.72;;;;;;;19.92;56.29;102081.47;4961404;28;20043;-68
2023/09/26 00:29:04;;;;;;;120.13;114.68;;;;;;;19.92;55.95;102083.41;4968358;28;20037;-68
2023/09/26 00:31:29;;;;;;;116.25;109.75;;;;;;;19.91;56.30;102089.97;4953914;28;20070;-68
2023/09/26 00:33:54;;;;;;;113.82;108.60;;;;;;;19.88;56.44;102083.09;4973752;28;20792;-68
2023/09/26 00:36:20;;;;;;;116.35;111.05;;;;;;;19.87;56.17;102076.00;4973755;28;20061;-68
2023/09/26 00:38:45;;;;;;;113.22;107.93;;;;;;;19.84;56.17;102071.06;4969149;28;20183;-67
2023/09/26 00:41:11;;;;;;;111.88;106.88;;;;;;;19.83;56.38;102070.25;4958171;28;20039;-68
2023/09/26 00:43:36;;;;;;;111.85;106.75;;;;;;;19.82;56.04;102065.84;4958131;28;20038;-67
2023/09/26 00:46:04;;;;;;;113.35;108.22;;;;;;;19.80;56.04;102065.28;4960449;28;20035;-68
2023/09/26 00:48:30;;;;;;;112.22;107.22;;;;;;;19.79;56.32;102071.06;4972277;28;20043;-68
2023/09/26 00:50:56;;;;;;;112.50;107.53;;;;;;;19.77;55.99;102067.75;4972585;28;20038;-67
2023/09/26 00:53:21;;;;;;;113.28;108.28;;;;;;;19.76;56.31;102061.47;4972166;28;20065;-67
2023/09/26 00:55:51;;;;;;;113.32;108.18;;;;;;;19.75;56.35;102065.28;4963383;28;20460;-67
2023/09/26 00:58:18;;;;;;;112.90;107.90;;;;;;;19.74;56.28;102066.38;4969488;28;20031;-67
2023/09/26 01:00:50;;;;;;;113.03;108.00;;;;;;;19.73;56.48;102070.22;4970365;28;20047;-68
2023/09/26 01:03:16;;;;;;;113.20;108.03;;;;;;;19.72;56.34;102070.50;4963550;28;20496;-68
2023/09/26 01:05:41;;;;;;;115.03;109.97;;;;;;;19.71;56.15;102074.34;4975931;28;20042;-68
2023/09/26 01:08:08;;;;;;;111.65;106.38;;;;;;;19.70;56.28;102080.91;4963898;28;20391;-68
2023/09/26 01:10:35;;;;;;;112.00;106.70;;;;;;;19.67;56.03;102080.34;4970644;28;20379;-68
2023/09/26 01:13:01;;;;;;;112.55;107.60;;;;;;;19.66;55.80;102089.63;4972563;28;20041;-69
2023/09/26 01:15:38;;;;;;;109.53;104.70;;;;;;;19.64;55.82;102080.84;4959051;28;20042;-69
2023/09/26 01:18:08;;;;;;;114.15;109.05;;;;;;;19.63;55.85;102075.63;4965515;28;20027;-67
2023/09/26 01:20:36;;;;;;;108.32;103.50;;;;;;;19.61;56.00;102073.19;4972479;28;20038;-68
2023/09/26 01:23:06;;;;;;;111.80;106.70;;;;;;;19.60;56.44;102065.22;4966218;28;20483;-69
2023/09/26 01:25:33;;;;;;;110.30;105.32;;;;;;;19.57;55.92;102069.31;4969516;28;20038;-67
2023/09/26 01:28:01;;;;;;;109.95;105.00;;;;;;;19.57;55.92;102063.03;4961146;28;20040;-70
2023/09/26 01:30:27;;;;;;;108.15;103.07;;;;;;;19.55;56.06;102057.00;4962917;28;20139;-67
2023/09/26 01:32:52;;;;;;;107.45;102.65;;;;;;;19.52;56.31;102057.53;4971258;28;20074;-71
2023/09/26 01:35:18;;;;;;;110.50;105.30;;;;;;;19.51;55.87;102056.72;4969752;28;20475;-69
2023/09/26 01:37:43;;;;;;;110.53;105.57;;;;;;;19.51;55.72;102058.66;4969284;28;20031;-67
2023/09/26 01:40:10;;;;;;;112.97;107.78;;;;;;;19.49;55.75;102050.69;4971955;28;20037;-69
2023/09/26 01:42:36;;;;;;;108.43;103.57;;;;;;;19.46;55.79;102051.22;4963201;28;20235;-69
2023/09/26 01:45:01;;;;;;;107.85;103.05;;;;;;;19.45;56.14;102047.66;4965242;28;20134;-69
2023/09/26 01:47:39;;;;;;;108.45;103.47;;;;;;;19.43;56.34;102051.78;4969913;28;20043;-69
2023/09/26 01:50:07;;;;;;;112.40;107.32;;;;;;;19.42;56.03;102052.84;4966528;28;20497;-70
2023/09/26 01:52:35;;;;;;;110.10;105.00;;;;;;;19.39;55.92;102051.47;4972231;28;20039;-67
2023/09/26 01:55:02;;;;;;;106.97;102.22;;;;;;;19.38;55.77;102040.81;4968846;28;20129;-67
2023/09/26 01:57:27;;;;;;;106.32;101.53;;;;;;;19.35;55.87;102044.91;4962678;28;20034;-67
2023/09/26 01:59:53;;;;;;;105.72;100.88;;;;;;;19.33;55.88;102047.09;4958154;28;20043;-67
2023/09/26 02:02:18;;;;;;;105.63;100.82;;;;;;;19.31;55.88;102046.53;4954529;28;20038;-68
2023/09/26 02:04:43;;;;;;;108.60;103.75;;;;;;;19.30;56.32;102050.34;4967810;28;20395;-68
2023/09/26 02:07:09;;;;;;;110.82;105.57;;;;;;;19.29;55.87;102053.38;4970464;28;20137;-68
2023/09/26 02:09:34;;;;;;;106.07;101.18;;;;;;;19.28;55.54;102054.44;4971484;28;20511;-67
2023/09/26 02:12:03;;;;;;;106.63;101.72;;;;;;;19.26;55.95;102053.91;4967945;28;20042;-67
2023/09/26 02:14:29;;;;;;;106.70;101.80;;;;;;;19.26;56.02;102053.91;4968447;28;20201;-68
2023/09/26 02:16:54;;;;;;;106.90;102.10;;;;;;;19.23;56.33;102052.53;4971419;28;20122;-67
2023/09/26 02:19:20;;;;;;;105.30;100.50;;;;;;;19.22;55.89;102045.41;4967556;28;20042;-67
2023/09/26 02:21:45;;;;;;;107.60;102.80;;;;;;;19.21;56.00;102036.38;4966094;28;20522;-68
2023/09/26 02:24:10;;;;;;;107.28;102.40;;;;;;;19.19;56.31;102024.03;4963259;28;20039;-70
2023/09/26 02:26:36;;;;;;;105.00;100.22;;;;;;;19.18;55.93;102025.13;4963349;28;20170;-67
2023/09/26 02:29:01;;;;;;;104.35;99.65;;;;;;;19.16;56.33;102017.19;4972263;28;20047;-67
2023/09/26 02:31:26;;;;;;;106.40;101.60;;;;;;;19.14;56.15;102026.75;4964286;28;20043;-67
2023/09/26 02:33:53;;;;;;;105.20;100.53;;;;;;;19.14;55.82;102021.28;4964723;28;20035;-67
2023/09/26 02:36:18;;;;;;;108.38;103.55;;;;;;;19.13;56.25;102016.91;4960703;28;20046;-67
2023/09/26 02:38:44;;;;;;;101.97;97.43;;;;;;;19.12;56.29;102013.31;4961399;28;20040;-68
2023/09/26 02:41:09;;;;;;;106.32;101.32;;;;;;;19.10;56.37;102012.78;4967033;28;20098;-69
2023/09/26 02:43:35;;;;;;;103.75;99.10;;;;;;;19.08;56.01;102006.75;4967591;28;20391;-67
2023/09/26 02:46:00;;;;;;;103.88;99.20;;;;;;;19.08;55.78;102005.94;4965073;28;20163;-67
2023/09/26 02:48:26;;;;;;;105.70;100.85;;;;;;;19.07;56.15;102021.53;4969119;28;20134;-67
2023/09/26 02:50:51;;;;;;;106.53;101.82;;;;;;;19.06;56.06;102013.59;4962342;28;20110;-67
2023/09/26 02:53:17;;;;;;;104.38;99.57;;;;;;;19.04;56.36;102016.59;4969085;28;20125;-67
2023/09/26 02:55:42;;;;;;;103.88;99.20;;;;;;;19.03;56.04;102018.50;4970503;28;20050;-67
2023/09/26 02:58:08;;;;;;;103.03;98.28;;;;;;;19.02;56.21;102022.34;4971351;28;20046;-67
2023/09/26 03:00:33;;;;;;;102.10;97.45;;;;;;;19.01;56.41;102019.88;4970881;28;20054;-67
2023/09/26 03:02:58;;;;;;;103.15;98.47;;;;;;;19.00;55.94;102015.50;4969408;28;20064;-68
2023/09/26 03:05:24;;;;;;;106.68;101.75;;;;;;;18.97;55.87;102016.81;4968430;28;20046;-68
2023/09/26 03:07:49;;;;;;;105.70;100.93;;;;;;;18.99;56.29;102005.63;4965604;28;20645;-67
2023/09/26 03:10:15;;;;;;;106.07;101.35;;;;;;;18.96;55.77;102000.69;4968587;28;20047;-68
2023/09/26 03:12:45;;;;;;;104.05;99.45;;;;;;;18.95;55.79;102008.06;4967039;28;20418;-67
2023/09/26 03:15:11;;;;;;;103.28;98.57;;;;;;;18.94;55.91;102009.16;4961085;28;20062;-67
2023/09/26 03:17:36;;;;;;;101.47;96.88;;;;;;;18.94;56.15;102005.59;4960668;28;20476;-67
2023/09/26 03:20:02;;;;;;;104.05;99.45;;;;;;;18.92;56.04;102003.13;4967614;28;20389;-67
2023/09/26 03:22:28;;;;;;;106.43;101.55;;;;;;;18.91;56.00;102003.41;4960308;28;20035;-67
2023/09/26 03:24:55;;;;;;;105.55;100.75;;;;;;;18.89;56.36;102002.84;4965309;28;20046;-67
2023/09/26 03:27:21;;;;;;;103.75;98.65;;;;;;;18.87;56.08;101994.06;4956415;28;20062;-67
2023/09/26 03:29:49;;;;;;;105.97;101.30;;;;;;;18.86;56.26;102000.66;4964410;28;20077;-67
2023/09/26 03:32:14;;;;;;;;;;;;;;;18.85;56.12;101998.97;4960521;28;20150;-69
2023/09/26 03:34:40;;;;;;;102.22;97.70;;;;;;;18.81;56.19;101999.53;4964133;28;20005;-67
2023/09/26 03:37:06;;;;;;;103.03;98.43;;;;;;;18.81;55.86;101999.53;4959374;28;20034;-67
2023/09/26 03:39:31;;;;;;;105.22;100.28;;;;;;;18.80;55.88;102002.53;4964866;28;20174;-67
2023/09/26 03:41:56;;;;;;;102.93;97.93;;;;;;;18.79;55.96;101998.16;4960255;28;20144;-67
2023/09/26 03:44:22;;;;;;;102.35;97.68;;;;;;;18.77;55.95;101994.84;4965313;28;20043;-67
2023/09/26 03:46:47;;;;;;;101.75;97.13;;;;;;;18.75;55.98;101997.88;4961385;28;20114;-67
2023/09/26 03:49:13;;;;;;;105.43;100.82;;;;;;;18.75;56.02;102000.59;4970994;28;20039;-67
2023/09/26 03:51:38;;;;;;;103.65;98.93;;;;;;;18.74;56.39;102001.66;4961224;28;20039;-67
2023/09/26 03:54:04;;;;;;;103.55;98.90;;;;;;;18.73;55.90;101994.53;4960304;28;20114;-67
2023/09/26 03:56:29;;;;;;;103.68;98.80;;;;;;;18.73;56.23;101990.97;4971674;28;20427;-69
2023/09/26 03:58:57;;;;;;;101.03;96.35;;;;;;;18.71;56.33;101984.94;4968689;28;20434;-67
2023/09/26 04:01:22;;;;;;;102.78;98.03;;;;;;;18.71;56.01;101979.47;4965547;28;20407;-67
2023/09/26 04:03:51;;;;;;;100.82;96.13;;;;;;;18.68;56.39;101969.88;4968952;28;20049;-67
2023/09/26 04:06:17;;;;;;;98.43;93.95;;;;;;;18.68;56.18;101974.53;4963279;28;20038;-68
2023/09/26 04:08:43;;;;;;;98.82;94.32;;;;;;;18.67;56.00;101972.88;4965379;28;20035;-67
2023/09/26 04:11:16;;;;;;;100.57;96.13;;;;;;;18.66;56.00;101963.84;4970808;28;20477;-67
2023/09/26 04:13:42;;;;;;;102.00;96.57;;;;;;;18.64;56.19;101971.50;4967166;28;20467;-67
2023/09/26 04:16:10;;;;;;;99.10;94.65;;;;;;;18.64;55.97;101968.75;4965924;28;20030;-68
2023/09/26 04:18:36;;;;;;;107.13;102.22;;;;;;;18.63;55.82;101958.09;4961181;28;20178;-68
2023/09/26 04:21:06;;;;;;;100.68;96.18;;;;;;;18.61;55.91;101952.88;4969191;28;20035;-67
2023/09/26 04:23:32;;;;;;;102.80;97.80;;;;;;;18.59;56.25;101950.41;4955502;28;20119;-68
2023/09/26 04:25:58;;;;;;;101.93;97.40;;;;;;;18.59;56.20;101955.88;4971625;28;20042;-67
2023/09/26 04:28:23;;;;;;;102.40;97.57;;;;;;;18.57;55.97;101962.69;4959630;28;20040;-68
2023/09/26 04:30:48;;;;;;;97.70;93.20;;;;;;;18.56;56.38;101961.06;4967679;28;20081;-69
2023/09/26 04:33:15;;;;;;;104.40;99.53;;;;;;;18.54;56.28;101955.84;4968424;28;20030;-67
2023/09/26 04:35:40;;;;;;;103.07;98.07;;;;;;;18.53;56.41;101953.41;4968656;28;20035;-67
2023/09/26 04:38:06;;;;;;;96.35;91.97;;;;;;;18.52;56.10;101946.25;4967559;28;20036;-67
2023/09/26 04:40:33;;;;;;;98.30;93.60;;;;;;;18.50;55.83;101949.28;4969747;28;20449;-68
2023/09/26 04:43:05;;;;;;;99.78;95.18;;;;;;;18.50;56.21;101951.19;4969371;28;20423;-67
2023/09/26 04:45:31;;;;;;;101.32;96.65;;;;;;;18.49;56.07;101955.81;4965809;28;20181;-67
2023/09/26 04:47:58;;;;;;;99.75;95.20;;;;;;;18.47;55.85;101947.09;4965050;28;20447;-70
2023/09/26 04:50:24;;;;;;;102.28;97.65;;;;;;;18.46;56.12;101942.69;4969409;28;20062;-68
2023/09/26 04:52:49;;;;;;;101.35;96.60;;;;;;;18.45;56.13;101940.25;4964140;28;20479;-67
2023/09/26 04:55:15;;;;;;;99.30;94.90;;;;;;;18.44;56.02;101950.34;4968357;28;20108;-67
2023/09/26 04:57:42;;;;;;;100.07;95.38;;;;;;;18.42;56.35;101952.53;4953822;28;20036;-67
2023/09/26 05:00:08;;;;;;;97.85;93.25;;;;;;;18.41;56.10;101953.59;4969735;28;20125;-67
2023/09/26 05:02:34;;;;;;;102.40;97.70;;;;;;;18.40;56.28;101951.16;4970337;28;20514;-67
2023/09/26 05:04:59;;;;;;;100.05;95.28;;;;;;;18.40;55.89;101956.63;4965716;28;20043;-68
2023/09/26 05:07:25;;;;;;;99.47;94.70;;;;;;;18.37;55.88;101947.84;4968800;28;20038;-69
2023/09/26 05:09:50;;;;;;;104.40;99.50;;;;;;;18.36;56.09;101956.31;4963825;28;20475;-67
2023/09/26 05:12:15;;;;;;;97.70;93.20;;;;;;;18.36;56.34;101959.06;4967371;28;20034;-66
2023/09/26 05:14:41;;;;;;;100.30;95.65;;;;;;;18.34;56.36;101962.06;4959504;28;20118;-67
2023/09/26 05:17:06;;;;;;;98.30;93.70;;;;;;;18.34;55.83;101966.69;4963074;28;20046;-67
2023/09/26 05:19:32;;;;;;;99.03;94.53;;;;;;;18.32;55.81;101961.50;4959442;28;20557;-67
2023/09/26 05:21:57;;;;;;;96.28;91.85;;;;;;;18.31;56.24;101965.31;4965041;28;20133;-68
2023/09/26 05:24:22;;;;;;;96.97;92.57;;;;;;;18.30;55.95;101965.59;4963697;28;20509;-67
2023/09/26 05:26:49;;;;;;;100.38;95.78;;;;;;;18.28;56.43;101960.38;4971233;28;20035;-68
2023/09/26 05:29:14;;;;;;;99.10;94.68;;;;;;;18.28;55.84;101957.66;4971048;28;20047;-68
2023/09/26 05:31:40;;;;;;;103.50;98.60;;;;;;;18.26;56.13;101951.59;4960729;28;20494;-67
2023/09/26 05:34:05;;;;;;;98.43;93.93;;;;;;;18.25;55.89;101949.97;4971444;28;20038;-68
2023/09/26 05:36:33;;;;;;;101.80;97.10;;;;;;;18.23;56.31;101946.69;4963291;28;20407;-68
2023/09/26 05:38:58;;;;;;;97.88;93.45;;;;;;;18.23;56.03;101954.88;4957580;28;20067;-68
2023/09/26 05:41:24;;;;;;;97.15;92.75;;;;;;;18.23;56.22;101962.28;4972738;28;20097;-70
2023/09/26 05:43:49;;;;;;;95.10;90.75;;;;;;;18.21;56.02;101961.69;4972047;28;20491;-68
2023/09/26 05:46:14;;;;;;;96.38;91.90;;;;;;;18.19;56.03;101964.69;4963739;28;20174;-68
2023/09/26 05:48:40;;;;;;;98.13;93.65;;;;;;;18.17;56.17;101955.94;4972155;28;20042;-67
2023/09/26 05:51:05;;;;;;;97.10;92.63;;;;;;;18.15;55.93;101950.72;4970623;28;20394;-68
2023/09/26 05:53:31;;;;;;;98.15;93.32;;;;;;;18.15;56.27;101953.47;4957904;28;20059;-68
2023/09/26 05:55:57;;;;;;;99.47;94.88;;;;;;;18.14;55.89;101946.38;4959929;28;20044;-68
2023/09/26 05:58:22;;;;;;;98.78;94.25;;;;;;;18.12;56.35;101948.53;4961074;28;20042;-68
2023/09/26 06:00:48;;;;;;;97.45;92.95;;;;;;;18.12;56.09;101948.53;4964073;28;20042;-68
2023/09/26 06:03:15;;;;;;;96.35;91.95;;;;;;;18.11;56.46;101935.94;4969891;28;20042;-67
2023/09/26 06:05:44;;;;;;;96.65;91.95;;;;;;;18.09;56.00;101932.66;4966665;28;20062;-67
2023/09/26 06:08:09;;;;;;;95.07;90.55;;;;;;;18.09;56.31;101938.13;4971644;28;20041;-67
2023/09/26 06:10:35;;;;;;;97.10;92.53;;;;;;;18.09;56.32;101935.41;4967599;28;20117;-67
2023/09/26 06:13:00;;;;;;;97.47;93.07;;;;;;;18.08;56.19;101932.91;4967010;28;20038;-67
2023/09/26 06:15:26;;;;;;;95.47;91.07;;;;;;;18.08;55.92;101935.66;4967998;28;20390;-67
2023/09/26 06:17:59;;;;;;;96.65;92.10;;;;;;;18.06;55.75;101929.63;4970775;28;20039;-68
2023/09/26 06:20:27;;;;;;;99.28;94.72;;;;;;;18.04;55.99;101932.63;4960804;28;20038;-68
2023/09/26 06:22:53;;;;;;;97.38;92.88;;;;;;;18.03;56.38;101933.69;4953105;28;20043;-67
2023/09/26 06:25:20;;;;;;;96.45;92.00;;;;;;;18.04;56.23;101940.00;4960929;28;20057;-68
2023/09/26 06:27:45;;;;;;;95.63;91.32;;;;;;;18.02;55.96;101942.19;4965886;28;20038;-66
2023/09/26 06:30:11;;;;;;;94.35;90.10;;;;;;;18.02;56.26;101944.91;4968911;28;20038;-66
2023/09/26 06:32:37;;;;;;;97.03;92.50;;;;;;;18.01;56.23;101940.53;4969249;28;20148;-66
2023/09/26 06:35:02;;;;;;;96.55;92.13;;;;;;;18.00;56.07;101944.34;4954176;28;20130;-67
2023/09/26 06:37:28;;;;;;;95.68;91.07;;;;;;;17.98;56.29;101950.06;4969847;28;20097;-66
2023/09/26 06:39:55;;;;;;;97.97;93.47;;;;;;;17.97;56.01;101953.91;4959319;28;20535;-67
2023/09/26 06:42:21;;;;;;;98.15;93.45;;;;;;;17.97;56.07;101959.38;4957679;28;20106;-67
2023/09/26 06:44:48;;;;;;;99.60;95.00;;;;;;;17.97;56.51;101961.25;4956866;28;20117;-67
2023/09/26 06:47:14;;;;;;;100.47;95.63;;;;;;;17.95;56.22;101967.00;4964124;28;20042;-66
2023/09/26 06:49:39;;;;;;;99.10;94.43;;;;;;;17.94;55.98;101957.13;4963793;28;20055;-67
2023/09/26 06:52:04;;;;;;;99.30;94.65;;;;;;;17.93;56.46;101958.25;4946249;28;20196;-66
2023/09/26 06:54:30;;;;;;;99.00;94.18;;;;;;;17.92;56.50;101959.34;4975969;28;21336;-67
2023/09/26 06:56:56;;;;;;;97.68;93.05;;;;;;;17.92;56.24;101960.16;4966251;28;20035;-68
2023/09/26 06:59:21;;;;;;;98.55;93.47;;;;;;;17.92;56.52;101959.34;4966208;28;20380;-68
2023/09/26 07:01:47;;;;;;;98.15;92.93;;;;;;;17.91;56.41;101957.66;4967066;28;20142;-74
2023/09/26 07:04:14;;;;;;;98.85;93.90;;;;;;;17.86;56.37;101961.19;4974603;28;20037;-75
2023/09/26 07:06:45;;;;;;;100.63;95.55;;;;;;;17.84;56.60;101957.91;4967541;28;20050;-75
2023/09/26 07:09:12;;;;;;;97.05;92.32;;;;;;;17.82;56.55;101954.63;4971579;28;20503;-77
2023/09/26 07:11:39;;;;;;;104.55;98.63;;;;;;;17.82;56.33;101957.34;4976552;28;20399;-80
2023/09/26 07:14:05;;;;;;;96.85;91.85;;;;;;;17.81;56.31;101952.94;4965940;28;20057;-71
2023/09/26 07:16:33;;;;;;;99.07;94.05;;;;;;;17.79;56.70;101946.06;4968039;28;20550;-74
2023/09/26 07:18:59;;;;;;;;;;;;;;;17.76;56.62;101946.59;4964405;28;20035;-72
2023/09/26 07:21:24;;;;;;;93.50;88.65;;;;;;;17.73;56.59;101947.94;4967312;28;19976;-71
2023/09/26 07:23:49;;;;;;;98.85;93.28;;;;;;;17.72;56.26;101947.13;4963141;28;20787;-72
2023/09/26 07:26:16;;;;;;;94.65;90.05;;;;;;;17.72;56.38;101947.13;4968441;28;20307;-75
2023/09/26 07:28:43;;;;;;;96.65;91.85;;;;;;;17.73;56.58;101950.69;4967217;28;20039;-79
2023/09/26 07:31:12;;;;;;;99.85;94.65;;;;;;;17.74;57.01;101939.50;4969194;28;20070;-75
2023/09/26 07:33:38;;;;;;;98.40;93.22;;;;;;;17.77;56.98;101942.78;4964966;28;20043;-67
2023/09/26 07:36:04;;;;;;;93.20;88.75;;;;;;;17.78;57.03;101939.78;4967286;28;20114;-76
2023/09/26 07:38:31;;;;;;;96.72;91.72;;;;;;;17.77;57.03;101942.78;4968579;28;20479;-76
2023/09/26 07:40:57;;;;;;;101.07;95.93;;;;;;;17.78;56.82;101938.97;4968026;28;20038;-73
2023/09/26 07:43:29;;;;;;;99.82;94.88;;;;;;;17.77;57.16;101932.69;4973293;28;20023;-72
2023/09/26 07:45:56;;;;;;;98.15;93.10;;;;;;;17.78;57.14;101938.97;4973610;28;20042;-74
2023/09/26 07:48:23;;;;;;;98.03;93.25;;;;;;;17.79;57.46;101932.41;4967180;28;20038;-77
2023/09/26 07:50:48;;;;;;;102.35;96.53;;;;;;;17.78;57.50;101930.78;4975330;28;20031;-73
2023/09/26 07:53:14;;;;;;;97.55;92.70;;;;;;;17.77;57.41;101923.66;4969745;28;20553;-76
2023/09/26 07:55:39;;;;;;;97.05;91.40;;;;;;;17.77;57.53;101929.94;4964674;28;20082;-67
2023/09/26 07:58:05;;;;;;;95.18;89.88;;;;;;;17.78;57.89;101939.78;4968074;28;20038;-67
2023/09/26 08:00:30;;;;;;;94.95;89.65;;;;;;;17.80;57.95;101936.84;4966587;28;20058;-67
2023/09/26 08:02:55;;;;;;;95.80;90.90;;;;;;;17.82;57.97;101942.88;4970401;28;20307;-67
2023/09/26 08:05:22;;;;;;;93.32;88.65;;;;;;;17.83;57.65;101941.75;4966855;28;20178;-69
2023/09/26 08:07:48;;;;;;;98.15;93.13;;;;;;;17.86;57.53;101946.69;4963814;28;20043;-75
2023/09/26 08:10:13;;;;;;;95.57;90.65;;;;;;;17.86;57.95;101938.50;4977299;28;20502;-75
2023/09/26 08:12:41;;;;;;;96.43;91.70;;;;;;;17.87;58.28;101942.91;4969091;28;20086;-85
2023/09/26 08:15:07;;;;;;;99.85;94.72;;;;;;;17.88;57.89;101939.06;4979830;28;20049;-69
2023/09/26 08:17:33;;;;;;;96.20;91.35;;;;;;;17.90;58.38;101950.56;4966215;28;20043;-67
2023/09/26 08:19:58;;;;;;;99.10;93.57;;;;;;;17.92;58.39;101956.59;4964727;28;20486;-66
2023/09/26 08:22:24;;;;;;;97.85;92.43;;;;;;;17.94;58.32;101948.94;4966534;28;20110;-68
2023/09/26 08:24:49;;;;;;;99.25;93.82;;;;;;;17.95;58.03;101954.16;4958872;28;20035;-67
2023/09/26 08:27:16;;;;;;;98.68;93.53;;;;;;;17.96;58.65;101946.78;4968389;28;20041;-68
2023/09/26 08:29:41;;;;;;;95.25;90.53;;;;;;;17.97;58.36;101942.13;4967097;28;20051;-68
2023/09/26 08:32:06;;;;;;;98.35;93.47;;;;;;;17.98;58.14;101939.13;4956707;28;20119;-68
2023/09/26 08:34:32;;;;;;;97.57;92.53;;;;;;;18.00;58.46;101938.88;4962853;28;20039;-69
2023/09/26 08:36:57;;;;;;;98.15;93.40;;;;;;;17.99;58.38;101924.38;4965894;28;20034;-67
2023/09/26 08:39:23;;;;;;;100.90;95.53;;;;;;;18.01;58.66;101929.59;4964516;28;20495;-67
2023/09/26 08:41:49;;;;;;;98.38;93.07;;;;;;;18.02;58.85;101939.44;4964578;28;20043;-69
2023/09/26 08:44:14;;;;;;;98.78;93.57;;;;;;;18.02;58.56;101937.53;4960848;28;20042;-68
2023/09/26 08:46:40;;;;;;;99.00;94.10;;;;;;;18.03;58.49;101935.63;4965506;28;20039;-68
2023/09/26 08:49:06;;;;;;;102.45;97.05;;;;;;;18.03;58.84;101933.69;4965478;28;20043;-67
2023/09/26 08:51:33;;;;;;;100.00;95.18;;;;;;;18.05;58.56;101934.25;4961599;28;20040;-68
2023/09/26 08:53:58;;;;;;;100.97;95.93;;;;;;;18.05;58.80;101941.66;4967487;28;20031;-69
2023/09/26 08:56:24;;;;;;;100.18;95.22;;;;;;;18.07;58.70;101945.78;4970224;28;20061;-68
2023/09/26 08:58:51;;;;;;;100.45;95.00;;;;;;;18.08;58.90;101944.66;4967881;28;20035;-70
2023/09/26 09:01:18;;;;;;;100.75;95.82;;;;;;;18.10;59.09;101934.28;4972391;28;20065;-67
2023/09/26 09:03:44;;;;;;;100.70;95.53;;;;;;;18.11;58.74;101938.66;4968417;28;20043;-66
2023/09/26 09:06:09;;;;;;;97.80;92.93;;;;;;;18.14;59.17;101942.78;4968616;28;20108;-69
2023/09/26 09:08:34;;;;;;;98.65;93.55;;;;;;;18.14;58.97;101940.91;4970128;28;20039;-67
2023/09/26 09:11:00;;;;;;;104.13;98.65;;;;;;;18.15;58.91;101931.59;4970637;28;20185;-67
2023/09/26 09:13:43;;;;;;;102.30;97.05;;;;;;;18.16;59.22;101921.47;4966407;28;20058;-67
2023/09/26 09:16:14;;;;;;;104.18;98.43;;;;;;;18.18;59.14;101930.25;4969573;28;20499;-67
2023/09/26 09:18:46;;;;;;;98.15;93.25;;;;;;;18.18;59.09;101935.72;4969276;28;20162;-67
2023/09/26 09:21:24;;;;;;;98.00;93.30;;;;;;;18.19;58.78;101922.84;4967527;28;20042;-68
2023/09/26 09:23:51;;;;;;;102.43;96.95;;;;;;;18.21;58.88;101920.69;4972686;28;20526;-69
2023/09/26 09:26:17;;;;;;;102.88;97.80;;;;;;;18.24;59.22;101915.50;4966444;28;20130;-68
2023/09/26 09:28:43;;;;;;;99.82;94.53;;;;;;;18.25;59.18;101908.13;4971620;28;20058;-67
2023/09/26 09:31:08;;;;;;;100.82;95.43;;;;;;;18.28;59.10;101907.59;4970631;28;20078;-67
2023/09/26 09:33:33;;;;;;;104.05;98.55;;;;;;;18.30;59.88;101914.44;4968241;28;20033;-69
2023/09/26 09:35:59;;;;;;;105.50;99.38;;;;;;;18.32;60.03;101911.44;4965733;28;20185;-68
2023/09/26 09:38:26;;;;;;;104.10;98.63;;;;;;;18.34;59.82;101910.09;4967678;28;20042;-68
2023/09/26 09:40:52;;;;;;;102.03;96.82;;;;;;;18.36;59.79;101910.63;4961496;28;20063;-70
2023/09/26 09:43:17;;;;;;;100.72;95.32;;;;;;;18.39;60.60;101914.75;4960696;28;20101;-68
2023/09/26 09:45:47;;;;;;;102.50;97.30;;;;;;;18.43;60.09;101909.59;4970613;28;20081;-67
2023/09/26 09:48:13;;;;;;;102.20;96.80;;;;;;;18.46;60.22;101898.09;4973053;28;20042;-66
2023/09/26 09:50:41;;;;;;;101.85;96.63;;;;;;;18.47;60.32;101900.56;4973420;28;20034;-67
2023/09/26 09:53:08;;;;;;;105.70;99.47;;;;;;;18.50;60.71;101905.50;4957563;28;20023;-67
2023/09/26 09:55:38;;;;;;;103.18;97.35;;;;;;;18.52;60.26;101907.97;4955026;28;20376;-68
2023/09/26 09:58:08;;;;;;;104.60;98.65;;;;;;;18.54;60.44;101922.19;4965751;28;20043;-68
2023/09/26 10:00:36;;;;;;;103.55;98.40;;;;;;;18.57;60.84;101916.19;4970632;28;20039;-67
2023/09/26 10:03:04;;;;;;;105.20;99.90;;;;;;;18.59;60.81;101923.03;4968207;28;20055;-67
2023/09/26 10:05:30;;;;;;;104.32;98.82;;;;;;;18.63;60.38;101919.78;4960405;28;20082;-67
2023/09/26 10:07:58;;;;;;;102.00;97.10;;;;;;;18.66;60.49;101920.06;4965740;28;20066;-70
2023/09/26 10:10:25;;;;;;;106.30;100.60;;;;;;;18.69;60.42;101922.25;4961970;28;20122;-67
2023/09/26 10:12:51;;;;;;;104.32;99.28;;;;;;;18.71;60.48;101917.34;4965589;28;20510;-67
2023/09/26 10:15:17;;;;;;;103.95;98.95;;;;;;;18.75;59.83;101914.91;4960016;28;20435;-79
2023/09/26 10:17:49;;;;;;;106.07;101.15;;;;;;;18.83;59.69;101908.13;4954547;28;20062;-67
2023/09/26 10:20:16;;;;;;;106.90;101.90;;;;;;;18.88;59.57;101903.47;4957922;28;20031;-67
2023/09/26 10:22:43;;;;;;;107.65;102.63;;;;;;;18.91;59.41;101913.06;4966793;28;20491;-67
2023/09/26 10:25:18;;;;;;;108.80;103.70;;;;;;;18.92;59.81;101907.28;4954538;28;20036;-68
2023/09/26 10:27:46;;;;;;;104.70;99.80;;;;;;;18.95;59.45;101909.50;4970141;28;20327;-68
2023/09/26 10:30:14;;;;;;;104.82;99.93;;;;;;;18.98;59.82;101899.94;4964160;28;20478;-67
2023/09/26 10:32:42;;;;;;;107.30;102.40;;;;;;;19.01;59.92;101902.94;4961641;28;20117;-68
2023/09/26 10:35:13;;;;;;;106.43;101.50;;;;;;;19.05;59.78;101894.19;4961503;28;20411;-67
2023/09/26 10:37:44;;;;;;;108.05;102.82;;;;;;;19.09;59.73;101890.63;4958369;28;20019;-67
2023/09/26 10:40:13;;;;;;;111.07;105.75;;;;;;;19.13;59.63;101894.47;4971888;28;20033;-69
2023/09/26 10:42:42;;;;;;;;;;;;;;;19.17;59.45;101894.75;4966238;28;20065;-68
2023/09/26 10:45:12;;;;;;;109.32;104.05;;;;;;;19.22;59.14;101900.22;4962823;28;20305;-69
2023/09/26 10:47:40;;;;;;;107.97;102.88;;;;;;;19.25;59.15;101896.94;4964926;28;20031;-69
2023/09/26 10:50:06;;;;;;;112.47;107.38;;;;;;;19.29;59.41;101891.75;4962997;28;20049;-70
2023/09/26 10:52:33;;;;;;;110.70;105.55;;;;;;;19.32;58.87;101897.50;4968019;28;20463;-67
2023/09/26 10:54:58;;;;;;;111.85;106.35;;;;;;;19.36;59.15;101898.59;4965281;28;20066;-69
2023/09/26 10:57:24;;;;;;;114.43;109.03;;;;;;;19.39;58.83;101898.03;4954780;28;20067;-69
2023/09/26 10:59:49;;;;;;;113.63;107.63;;;;;;;19.43;58.65;101898.34;4971161;28;20037;-70